Lackey, Virginia
Current Conditions -  °F | °C
As of 1:22 AM on Saturday 25 Oct 2014 (Local Time) from KPHF Reporting Station
Clear Clear  
Wind Chill: 47°   Ceiling: Unl
Heat Index: 47°   Visibility: 7mi
Dew Point: 42°   Wind: 0mph
Humidity: 83%   Direction: NA
Pressure: 29.96"   Gusts: NA
Location:  37.23°N, 76.55°W
Report Text: KPHF 250522Z 00000KT 7SM CLR 08/06 A2996 RMK AO2 T00830056
Loading
Personal Weather Stations






























Interactive Weather Map
Tropical Storm Tracking
New forecast layout! Learn more

10-Day Weather Forecast

Advertisements
Track Severe Weather on mobile